Terminal Aerodrome Forecast
Issued by NWS Chicago, IL

Home | Current Version | Previous Version | Text Only | Print | Product List | Glossary Off
Versions: 1 2 3 4 5 6 7 8 9 10 11 12 13 14 15 16 17 18 19 20 21 22 23 24 25 26 27 28 29 30 31 32 33 34

000
FTUS43 KLOT 021300 AAA
TAFRFD
TAF AMD
KRFD 021358Z 0214/0312 30004KT P6SM FEW250
     FM021800 20003KT P6SM BKN150
     FM022300 14005KT P6SM BKN080 OVC100
     FM030800 14011KT P6SM BKN050 OVC080
     FM031000 15013KT 1 1/2SM -SN BKN010 OVC035=

USA.gov is the U.S. government's official web portal to all federal, state and local government web resources and services.